SBI7001 UNNT-UNBB
Flight info
| Callsign | SBI7001 |
|---|---|
| Flight time | N/A |
| Altitude | 23000 |
| Route | ALIRO |
| Aircraft | A320/M-SDE3FGHIRWY/LB1 |
Departure
| Time | N/A |
|---|---|
| Airport | Novosibirsk Tolmachevo Airport (UNNT) |
Arrival
| Time | 2026-05-07 12:14 |
|---|---|
| Airport | Barnaul Gherman Titov International Airport (UNBB) |
| Time | Latitude | Longitude | Altitude | Speed | Heading |
|---|---|---|---|---|---|
| 2026-05-07 11:58 | 54.34306 | 82.95651 | 23051 ft | 416 kts | 165° |
| 2026-05-07 11:59 | 54.23775 | 83.01098 | 21865 ft | 392 kts | 166° |
| 2026-05-07 12:00 | 54.12285 | 83.06944 | 19727 ft | 382 kts | 166° |
| 2026-05-07 12:01 | 54.00942 | 83.12703 | 17403 ft | 373 kts | 165° |
| 2026-05-07 12:02 | 53.95336 | 83.15541 | 16254 ft | 368 kts | 165° |
| 2026-05-07 12:02 | 53.93219 | 83.16610 | 15824 ft | 366 kts | 165° |
| 2026-05-07 12:02 | 53.90293 | 83.18086 | 15215 ft | 361 kts | 165° |
| 2026-05-07 12:03 | 53.85675 | 83.20412 | 14286 ft | 358 kts | 165° |
| 2026-05-07 12:03 | 53.80791 | 83.22871 | 13218 ft | 351 kts | 164° |
| 2026-05-07 12:04 | 53.76983 | 83.26311 | 12325 ft | 350 kts | 141° |
| 2026-05-07 12:04 | 53.73574 | 83.32818 | 11245 ft | 348 kts | 130° |
| 2026-05-07 12:05 | 53.68366 | 83.43568 | 9973 ft | 305 kts | 130° |
| 2026-05-07 12:06 | 53.65559 | 83.49321 | 9724 ft | 302 kts | 130° |
| 2026-05-07 12:06 | 53.62820 | 83.54934 | 8676 ft | 296 kts | 130° |
| 2026-05-07 12:07 | 53.60502 | 83.59689 | 7632 ft | 289 kts | 131° |
| 2026-05-07 12:07 | 53.57983 | 83.64839 | 6491 ft | 281 kts | 131° |
| 2026-05-07 12:08 | 53.55090 | 83.70700 | 5176 ft | 273 kts | 130° |
| 2026-05-07 12:08 | 53.51536 | 83.76455 | 4544 ft | 224 kts | 155° |
| 2026-05-07 12:09 | 53.46834 | 83.79726 | 4216 ft | 219 kts | 158° |
| 2026-05-07 12:10 | 53.44123 | 83.81099 | 4012 ft | 208 kts | 189° |
| 2026-05-07 12:10 | 53.43666 | 83.80916 | 3952 ft | 207 kts | 202° |
| 2026-05-07 12:10 | 53.41660 | 83.75514 | 3093 ft | 200 kts | 247° |
| 2026-05-07 12:11 | 53.40393 | 83.70378 | 2532 ft | 192 kts | 247° |
| 2026-05-07 12:13 | 53.37736 | 83.59652 | 1307 ft | 148 kts | 249° |
| 2026-05-07 12:13 | 53.36641 | 83.55266 | 844 ft | 140 kts | 249° |
| 2026-05-07 12:14 | 53.36212 | 83.53517 | 838 ft | 33 kts | 245° |
| 2026-05-07 12:15 | 53.36191 | 83.54181 | 833 ft | 39 kts | 67° |
| 2026-05-07 12:15 | 53.36363 | 83.54873 | 833 ft | 46 kts | 67° |
| 2026-05-07 12:17 | 53.36378 | 83.55176 | 831 ft | 0 kts | 67° |